sensor_id;sensor_type;location;lat;lon;timestamp;P1;durP1;ratioP1;P2;durP2;ratioP2
4365;SDS011;2196;47.422;9.656;2024-01-15T00:01:28;35.50;;;20.37;;
4365;SDS011;2196;47.422;9.656;2024-01-15T00:03:57;38.67;;;21.40;;
4365;SDS011;2196;47.422;9.656;2024-01-15T00:06:24;30.43;;;18.70;;
4365;SDS011;2196;47.422;9.656;2024-01-15T00:08:52;28.57;;;19.37;;
4365;SDS011;2196;47.422;9.656;2024-01-15T00:11:19;31.40;;;20.13;;
4365;SDS011;2196;47.422;9.656;2024-01-15T00:13:46;29.13;;;17.97;;
4365;SDS011;2196;47.422;9.656;2024-01-15T00:16:13;26.97;;;17.07;;
4365;SDS011;2196;47.422;9.656;2024-01-15T00:18:40;28.80;;;18.30;;
4365;SDS011;2196;47.422;9.656;2024-01-15T00:21:08;34.50;;;18.13;;
4365;SDS011;2196;47.422;9.656;2024-01-15T00:23:36;29.70;;;17.80;;
4365;SDS011;2196;47.422;9.656;2024-01-15T00:26:03;28.67;;;16.27;;
4365;SDS011;2196;47.422;9.656;2024-01-15T00:28:30;26.93;;;16.37;;
4365;SDS011;2196;47.422;9.656;2024-01-15T00:30:57;23.63;;;15.73;;
4365;SDS011;2196;47.422;9.656;2024-01-15T00:33:24;27.00;;;15.27;;
4365;SDS011;2196;47.422;9.656;2024-01-15T00:35:51;26.17;;;15.77;;
4365;SDS011;2196;47.422;9.656;2024-01-15T00:38:20;23.00;;;15.63;;
4365;SDS011;2196;47.422;9.656;2024-01-15T00:40:47;23.57;;;15.40;;
4365;SDS011;2196;47.422;9.656;2024-01-15T00:43:14;29.03;;;16.57;;
4365;SDS011;2196;47.422;9.656;2024-01-15T00:45:43;25.20;;;15.47;;
4365;SDS011;2196;47.422;9.656;2024-01-15T00:48:10;25.77;;;16.83;;
4365;SDS011;2196;47.422;9.656;2024-01-15T00:50:37;27.40;;;15.57;;
4365;SDS011;2196;47.422;9.656;2024-01-15T00:53:04;26.33;;;16.77;;
4365;SDS011;2196;47.422;9.656;2024-01-15T00:55:33;28.57;;;17.07;;
4365;SDS011;2196;47.422;9.656;2024-01-15T00:58:01;29.30;;;17.07;;
4365;SDS011;2196;47.422;9.656;2024-01-15T01:00:28;29.93;;;18.80;;
4365;SDS011;2196;47.422;9.656;2024-01-15T01:02:55;31.10;;;17.93;;
4365;SDS011;2196;47.422;9.656;2024-01-15T01:05:22;24.10;;;16.30;;
4365;SDS011;2196;47.422;9.656;2024-01-15T01:07:50;31.53;;;19.20;;
4365;SDS011;2196;47.422;9.656;2024-01-15T01:10:17;25.47;;;16.00;;
4365;SDS011;2196;47.422;9.656;2024-01-15T01:12:45;27.80;;;18.50;;
4365;SDS011;2196;47.422;9.656;2024-01-15T01:15:13;28.07;;;17.33;;
4365;SDS011;2196;47.422;9.656;2024-01-15T01:17:40;27.53;;;16.87;;
4365;SDS011;2196;47.422;9.656;2024-01-15T01:20:08;27.10;;;15.97;;
4365;SDS011;2196;47.422;9.656;2024-01-15T01:22:35;34.37;;;17.90;;
4365;SDS011;2196;47.422;9.656;2024-01-15T01:25:03;29.83;;;16.53;;
4365;SDS011;2196;47.422;9.656;2024-01-15T01:27:30;28.50;;;16.60;;
4365;SDS011;2196;47.422;9.656;2024-01-15T01:29:59;27.30;;;18.07;;
4365;SDS011;2196;47.422;9.656;2024-01-15T01:32:26;26.20;;;16.63;;
4365;SDS011;2196;47.422;9.656;2024-01-15T01:34:53;28.27;;;18.07;;
4365;SDS011;2196;47.422;9.656;2024-01-15T01:37:20;25.63;;;17.07;;
4365;SDS011;2196;47.422;9.656;2024-01-15T01:39:48;30.43;;;18.23;;
4365;SDS011;2196;47.422;9.656;2024-01-15T01:42:15;30.43;;;17.83;;
4365;SDS011;2196;47.422;9.656;2024-01-15T01:44:42;30.27;;;17.83;;
4365;SDS011;2196;47.422;9.656;2024-01-15T01:47:11;26.23;;;17.13;;
4365;SDS011;2196;47.422;9.656;2024-01-15T01:49:38;30.17;;;18.80;;
4365;SDS011;2196;47.422;9.656;2024-01-15T01:52:06;37.10;;;21.73;;
4365;SDS011;2196;47.422;9.656;2024-01-15T01:54:37;37.80;;;21.10;;
4365;SDS011;2196;47.422;9.656;2024-01-15T01:57:06;34.20;;;18.83;;
4365;SDS011;2196;47.422;9.656;2024-01-15T01:59:38;37.33;;;20.80;;
4365;SDS011;2196;47.422;9.656;2024-01-15T02:02:05;37.23;;;21.83;;
4365;SDS011;2196;47.422;9.656;2024-01-15T02:04:37;32.40;;;19.47;;
4365;SDS011;2196;47.422;9.656;2024-01-15T02:07:05;32.07;;;18.90;;
4365;SDS011;2196;47.422;9.656;2024-01-15T02:09:32;29.67;;;19.23;;
4365;SDS011;2196;47.422;9.656;2024-01-15T02:11:59;30.20;;;18.17;;
4365;SDS011;2196;47.422;9.656;2024-01-15T02:14:26;30.37;;;17.37;;
4365;SDS011;2196;47.422;9.656;2024-01-15T02:16:53;33.70;;;19.67;;
4365;SDS011;2196;47.422;9.656;2024-01-15T02:19:20;32.30;;;16.77;;
4365;SDS011;2196;47.422;9.656;2024-01-15T02:21:48;31.57;;;17.87;;
4365;SDS011;2196;47.422;9.656;2024-01-15T02:24:17;33.87;;;20.23;;
4365;SDS011;2196;47.422;9.656;2024-01-15T02:26:44;23.03;;;15.97;;
4365;SDS011;2196;47.422;9.656;2024-01-15T02:29:11;28.87;;;17.87;;
4365;SDS011;2196;47.422;9.656;2024-01-15T02:31:39;32.47;;;17.17;;
4365;SDS011;2196;47.422;9.656;2024-01-15T02:34:06;28.50;;;17.20;;
4365;SDS011;2196;47.422;9.656;2024-01-15T02:36:33;34.10;;;19.03;;
4365;SDS011;2196;47.422;9.656;2024-01-15T02:39:00;33.33;;;18.77;;
4365;SDS011;2196;47.422;9.656;2024-01-15T02:41:28;29.57;;;18.70;;
4365;SDS011;2196;47.422;9.656;2024-01-15T02:43:56;27.30;;;17.87;;
4365;SDS011;2196;47.422;9.656;2024-01-15T02:46:23;25.53;;;16.23;;
4365;SDS011;2196;47.422;9.656;2024-01-15T02:48:50;28.77;;;18.23;;
4365;SDS011;2196;47.422;9.656;2024-01-15T02:51:17;31.27;;;18.00;;
4365;SDS011;2196;47.422;9.656;2024-01-15T02:53:44;27.60;;;16.87;;
4365;SDS011;2196;47.422;9.656;2024-01-15T02:56:12;25.77;;;15.17;;
4365;SDS011;2196;47.422;9.656;2024-01-15T02:58:40;26.67;;;17.03;;
4365;SDS011;2196;47.422;9.656;2024-01-15T03:01:07;27.47;;;15.47;;
4365;SDS011;2196;47.422;9.656;2024-01-15T03:03:34;23.50;;;12.20;;
4365;SDS011;2196;47.422;9.656;2024-01-15T03:06:01;22.23;;;14.20;;
4365;SDS011;2196;47.422;9.656;2024-01-15T03:08:28;23.77;;;13.30;;
4365;SDS011;2196;47.422;9.656;2024-01-15T03:10:55;26.60;;;15.07;;
4365;SDS011;2196;47.422;9.656;2024-01-15T03:13:22;27.30;;;14.07;;
4365;SDS011;2196;47.422;9.656;2024-01-15T03:15:51;23.73;;;12.30;;
4365;SDS011;2196;47.422;9.656;2024-01-15T03:18:17;23.27;;;13.57;;
4365;SDS011;2196;47.422;9.656;2024-01-15T03:20:45;20.93;;;12.53;;
4365;SDS011;2196;47.422;9.656;2024-01-15T03:23:12;22.57;;;11.73;;
4365;SDS011;2196;47.422;9.656;2024-01-15T03:25:39;20.80;;;11.43;;
4365;SDS011;2196;47.422;9.656;2024-01-15T03:28:06;21.67;;;12.60;;
4365;SDS011;2196;47.422;9.656;2024-01-15T03:30:33;20.97;;;11.00;;
4365;SDS011;2196;47.422;9.656;2024-01-15T03:33:02;21.77;;;11.20;;
4365;SDS011;2196;47.422;9.656;2024-01-15T03:35:29;22.53;;;12.50;;
4365;SDS011;2196;47.422;9.656;2024-01-15T03:37:56;21.77;;;12.57;;
4365;SDS011;2196;47.422;9.656;2024-01-15T03:40:23;25.23;;;12.60;;
4365;SDS011;2196;47.422;9.656;2024-01-15T03:42:50;21.23;;;11.70;;
4365;SDS011;2196;47.422;9.656;2024-01-15T03:45:18;22.93;;;12.63;;
4365;SDS011;2196;47.422;9.656;2024-01-15T03:47:45;21.73;;;12.03;;
4365;SDS011;2196;47.422;9.656;2024-01-15T03:50:13;27.07;;;12.30;;
4365;SDS011;2196;47.422;9.656;2024-01-15T03:52:40;18.30;;;10.23;;
4365;SDS011;2196;47.422;9.656;2024-01-15T03:55:08;19.00;;;11.80;;
4365;SDS011;2196;47.422;9.656;2024-01-15T03:57:35;21.07;;;10.47;;
4365;SDS011;2196;47.422;9.656;2024-01-15T04:00:02;18.37;;;9.93;;
4365;SDS011;2196;47.422;9.656;2024-01-15T04:02:30;18.27;;;10.23;;
4365;SDS011;2196;47.422;9.656;2024-01-15T04:04:57;14.77;;;9.07;;
4365;SDS011;2196;47.422;9.656;2024-01-15T04:07:25;16.80;;;9.80;;
4365;SDS011;2196;47.422;9.656;2024-01-15T04:09:53;14.97;;;8.70;;
4365;SDS011;2196;47.422;9.656;2024-01-15T04:12:20;19.57;;;8.73;;
4365;SDS011;2196;47.422;9.656;2024-01-15T04:14:47;12.73;;;8.43;;
4365;SDS011;2196;47.422;9.656;2024-01-15T04:17:14;13.97;;;8.03;;
4365;SDS011;2196;47.422;9.656;2024-01-15T04:19:43;13.17;;;8.27;;
4365;SDS011;2196;47.422;9.656;2024-01-15T04:22:10;18.77;;;9.70;;
4365;SDS011;2196;47.422;9.656;2024-01-15T04:24:39;13.53;;;8.60;;
4365;SDS011;2196;47.422;9.656;2024-01-15T04:27:06;16.77;;;7.97;;
4365;SDS011;2196;47.422;9.656;2024-01-15T04:29:37;18.57;;;9.73;;
4365;SDS011;2196;47.422;9.656;2024-01-15T04:32:05;13.43;;;7.40;;
4365;SDS011;2196;47.422;9.656;2024-01-15T04:34:32;16.67;;;8.67;;
4365;SDS011;2196;47.422;9.656;2024-01-15T04:36:59;13.73;;;7.63;;
4365;SDS011;2196;47.422;9.656;2024-01-15T04:39:26;13.17;;;8.30;;
4365;SDS011;2196;47.422;9.656;2024-01-15T04:41:55;15.43;;;7.70;;
4365;SDS011;2196;47.422;9.656;2024-01-15T04:44:22;12.53;;;7.13;;
4365;SDS011;2196;47.422;9.656;2024-01-15T04:46:50;12.20;;;7.43;;
4365;SDS011;2196;47.422;9.656;2024-01-15T04:49:17;9.03;;;5.93;;
4365;SDS011;2196;47.422;9.656;2024-01-15T04:51:44;12.70;;;5.80;;
4365;SDS011;2196;47.422;9.656;2024-01-15T04:54:11;8.07;;;5.17;;
4365;SDS011;2196;47.422;9.656;2024-01-15T04:56:42;10.60;;;5.70;;
4365;SDS011;2196;47.422;9.656;2024-01-15T04:59:11;12.47;;;6.67;;
4365;SDS011;2196;47.422;9.656;2024-01-15T05:01:39;6.53;;;5.10;;
4365;SDS011;2196;47.422;9.656;2024-01-15T05:04:06;8.33;;;4.73;;
4365;SDS011;2196;47.422;9.656;2024-01-15T05:06:33;8.37;;;4.67;;
4365;SDS011;2196;47.422;9.656;2024-01-15T05:09:00;6.60;;;4.27;;
4365;SDS011;2196;47.422;9.656;2024-01-15T05:11:29;8.07;;;4.47;;
4365;SDS011;2196;47.422;9.656;2024-01-15T05:13:56;7.03;;;3.10;;
4365;SDS011;2196;47.422;9.656;2024-01-15T05:16:25;6.13;;;3.47;;
4365;SDS011;2196;47.422;9.656;2024-01-15T05:18:52;5.90;;;2.67;;
4365;SDS011;2196;47.422;9.656;2024-01-15T05:21:19;4.30;;;3.67;;
4365;SDS011;2196;47.422;9.656;2024-01-15T05:23:46;4.47;;;2.87;;
4365;SDS011;2196;47.422;9.656;2024-01-15T05:26:14;4.17;;;2.40;;
4365;SDS011;2196;47.422;9.656;2024-01-15T05:28:41;2.60;;;2.07;;
4365;SDS011;2196;47.422;9.656;2024-01-15T05:31:08;1.87;;;1.73;;
4365;SDS011;2196;47.422;9.656;2024-01-15T05:33:37;3.07;;;1.60;;
4365;SDS011;2196;47.422;9.656;2024-01-15T05:36:05;3.73;;;2.20;;
4365;SDS011;2196;47.422;9.656;2024-01-15T05:38:33;2.57;;;1.43;;
4365;SDS011;2196;47.422;9.656;2024-01-15T05:41:00;2.93;;;2.07;;
4365;SDS011;2196;47.422;9.656;2024-01-15T05:43:27;2.53;;;1.73;;
4365;SDS011;2196;47.422;9.656;2024-01-15T05:45:54;4.37;;;1.63;;
4365;SDS011;2196;47.422;9.656;2024-01-15T05:48:21;1.50;;;1.17;;
4365;SDS011;2196;47.422;9.656;2024-01-15T05:50:50;2.93;;;1.17;;
4365;SDS011;2196;47.422;9.656;2024-01-15T05:53:17;5.43;;;3.07;;
4365;SDS011;2196;47.422;9.656;2024-01-15T05:55:45;3.77;;;1.40;;
4365;SDS011;2196;47.422;9.656;2024-01-15T05:58:12;3.10;;;1.77;;
4365;SDS011;2196;47.422;9.656;2024-01-15T06:00:39;3.13;;;2.10;;
4365;SDS011;2196;47.422;9.656;2024-01-15T06:03:06;2.10;;;1.87;;
4365;SDS011;2196;47.422;9.656;2024-01-15T06:05:33;1.30;;;1.00;;
4365;SDS011;2196;47.422;9.656;2024-01-15T06:08:02;1.43;;;1.13;;
4365;SDS011;2196;47.422;9.656;2024-01-15T06:10:29;2.03;;;1.70;;
4365;SDS011;2196;47.422;9.656;2024-01-15T06:12:56;2.50;;;1.53;;
4365;SDS011;2196;47.422;9.656;2024-01-15T06:15:24;3.70;;;1.63;;
4365;SDS011;2196;47.422;9.656;2024-01-15T06:17:51;2.23;;;1.20;;
4365;SDS011;2196;47.422;9.656;2024-01-15T06:20:18;2.97;;;2.20;;
4365;SDS011;2196;47.422;9.656;2024-01-15T06:22:45;4.07;;;2.17;;
4365;SDS011;2196;47.422;9.656;2024-01-15T06:25:14;3.50;;;1.70;;
4365;SDS011;2196;47.422;9.656;2024-01-15T06:27:41;2.57;;;1.60;;
4365;SDS011;2196;47.422;9.656;2024-01-15T06:30:09;1.53;;;1.27;;
4365;SDS011;2196;47.422;9.656;2024-01-15T06:32:36;2.93;;;1.50;;
4365;SDS011;2196;47.422;9.656;2024-01-15T06:35:04;2.17;;;1.97;;
4365;SDS011;2196;47.422;9.656;2024-01-15T06:37:31;1.50;;;1.30;;
4365;SDS011;2196;47.422;9.656;2024-01-15T06:39:59;2.43;;;1.47;;
4365;SDS011;2196;47.422;9.656;2024-01-15T06:42:27;3.57;;;1.73;;
4365;SDS011;2196;47.422;9.656;2024-01-15T06:44:54;4.40;;;2.33;;
4365;SDS011;2196;47.422;9.656;2024-01-15T06:47:22;1.73;;;1.30;;
4365;SDS011;2196;47.422;9.656;2024-01-15T06:49:49;2.90;;;1.50;;
4365;SDS011;2196;47.422;9.656;2024-01-15T06:52:17;3.77;;;1.57;;
4365;SDS011;2196;47.422;9.656;2024-01-15T06:54:44;2.13;;;1.70;;
4365;SDS011;2196;47.422;9.656;2024-01-15T06:57:13;3.00;;;1.77;;
4365;SDS011;2196;47.422;9.656;2024-01-15T06:59:42;3.87;;;1.77;;
4365;SDS011;2196;47.422;9.656;2024-01-15T07:02:08;1.77;;;1.10;;
4365;SDS011;2196;47.422;9.656;2024-01-15T07:04:39;3.93;;;1.60;;
4365;SDS011;2196;47.422;9.656;2024-01-15T07:07:06;1.73;;;1.20;;
4365;SDS011;2196;47.422;9.656;2024-01-15T07:09:37;2.47;;;1.20;;
4365;SDS011;2196;47.422;9.656;2024-01-15T07:12:05;3.87;;;1.80;;
4365;SDS011;2196;47.422;9.656;2024-01-15T07:14:36;2.73;;;1.50;;
4365;SDS011;2196;47.422;9.656;2024-01-15T07:17:09;3.30;;;1.50;;
4365;SDS011;2196;47.422;9.656;2024-01-15T07:19:36;2.20;;;1.23;;
4365;SDS011;2196;47.422;9.656;2024-01-15T07:22:03;3.87;;;1.47;;
4365;SDS011;2196;47.422;9.656;2024-01-15T07:24:35;2.27;;;1.27;;
4365;SDS011;2196;47.422;9.656;2024-01-15T07:27:05;2.43;;;2.03;;
4365;SDS011;2196;47.422;9.656;2024-01-15T07:29:34;3.47;;;1.73;;
4365;SDS011;2196;47.422;9.656;2024-01-15T07:32:02;4.70;;;2.20;;
4365;SDS011;2196;47.422;9.656;2024-01-15T07:34:31;2.03;;;1.17;;
4365;SDS011;2196;47.422;9.656;2024-01-15T07:36:58;3.13;;;1.83;;
4365;SDS011;2196;47.422;9.656;2024-01-15T07:39:25;2.93;;;1.57;;
4365;SDS011;2196;47.422;9.656;2024-01-15T07:41:54;2.80;;;1.77;;
4365;SDS011;2196;47.422;9.656;2024-01-15T07:44:21;2.83;;;1.60;;
4365;SDS011;2196;47.422;9.656;2024-01-15T07:46:48;2.30;;;1.40;;
4365;SDS011;2196;47.422;9.656;2024-01-15T07:49:16;1.70;;;1.60;;
4365;SDS011;2196;47.422;9.656;2024-01-15T07:51:45;6.27;;;1.93;;
4365;SDS011;2196;47.422;9.656;2024-01-15T07:54:12;13.33;;;4.50;;
4365;SDS011;2196;47.422;9.656;2024-01-15T07:56:55;5.00;;;3.03;;
4365;SDS011;2196;47.422;9.656;2024-01-15T07:59:22;6.67;;;3.60;;
4365;SDS011;2196;47.422;9.656;2024-01-15T08:01:49;12.83;;;6.00;;
4365;SDS011;2196;47.422;9.656;2024-01-15T08:04:16;5.90;;;2.87;;
4365;SDS011;2196;47.422;9.656;2024-01-15T08:06:45;5.47;;;2.57;;
4365;SDS011;2196;47.422;9.656;2024-01-15T08:09:13;9.03;;;4.33;;
4365;SDS011;2196;47.422;9.656;2024-01-15T08:11:40;14.83;;;6.20;;
4365;SDS011;2196;47.422;9.656;2024-01-15T08:14:07;5.00;;;2.43;;
4365;SDS011;2196;47.422;9.656;2024-01-15T08:16:34;4.30;;;2.20;;
4365;SDS011;2196;47.422;9.656;2024-01-15T08:19:02;5.70;;;2.40;;
4365;SDS011;2196;47.422;9.656;2024-01-15T08:21:29;4.50;;;3.17;;
4365;SDS011;2196;47.422;9.656;2024-01-15T08:23:58;2.93;;;1.97;;
4365;SDS011;2196;47.422;9.656;2024-01-15T08:26:25;3.10;;;2.13;;
4365;SDS011;2196;47.422;9.656;2024-01-15T08:28:53;3.83;;;1.87;;
4365;SDS011;2196;47.422;9.656;2024-01-15T08:31:20;2.87;;;1.90;;
4365;SDS011;2196;47.422;9.656;2024-01-15T08:33:47;5.07;;;2.00;;
4365;SDS011;2196;47.422;9.656;2024-01-15T08:36:15;3.23;;;2.30;;
4365;SDS011;2196;47.422;9.656;2024-01-15T08:38:42;3.90;;;2.73;;
4365;SDS011;2196;47.422;9.656;2024-01-15T08:41:11;4.90;;;2.23;;
4365;SDS011;2196;47.422;9.656;2024-01-15T08:43:39;2.80;;;2.23;;
4365;SDS011;2196;47.422;9.656;2024-01-15T08:46:06;5.40;;;2.77;;
4365;SDS011;2196;47.422;9.656;2024-01-15T08:48:33;3.27;;;2.53;;
4365;SDS011;2196;47.422;9.656;2024-01-15T08:51:01;5.10;;;3.47;;
4365;SDS011;2196;47.422;9.656;2024-01-15T08:53:29;4.50;;;2.93;;
4365;SDS011;2196;47.422;9.656;2024-01-15T08:55:56;10.67;;;4.77;;
4365;SDS011;2196;47.422;9.656;2024-01-15T08:58:25;6.63;;;3.90;;
4365;SDS011;2196;47.422;9.656;2024-01-15T09:00:52;8.50;;;4.43;;
4365;SDS011;2196;47.422;9.656;2024-01-15T09:03:21;7.80;;;4.00;;
4365;SDS011;2196;47.422;9.656;2024-01-15T09:05:48;3.57;;;2.20;;
4365;SDS011;2196;47.422;9.656;2024-01-15T09:08:16;2.90;;;2.23;;
4365;SDS011;2196;47.422;9.656;2024-01-15T09:10:43;5.37;;;2.53;;
4365;SDS011;2196;47.422;9.656;2024-01-15T09:13:11;3.07;;;2.30;;
4365;SDS011;2196;47.422;9.656;2024-01-15T09:15:39;5.00;;;2.57;;
4365;SDS011;2196;47.422;9.656;2024-01-15T09:18:07;3.13;;;2.17;;
4365;SDS011;2196;47.422;9.656;2024-01-15T09:20:35;5.77;;;2.80;;
4365;SDS011;2196;47.422;9.656;2024-01-15T09:23:03;4.57;;;2.27;;
4365;SDS011;2196;47.422;9.656;2024-01-15T09:25:31;1.37;;;1.20;;
4365;SDS011;2196;47.422;9.656;2024-01-15T09:27:58;1.80;;;1.30;;
4365;SDS011;2196;47.422;9.656;2024-01-15T09:30:25;2.73;;;1.87;;
4365;SDS011;2196;47.422;9.656;2024-01-15T09:32:54;2.13;;;1.50;;
4365;SDS011;2196;47.422;9.656;2024-01-15T09:35:22;2.77;;;1.30;;
4365;SDS011;2196;47.422;9.656;2024-01-15T09:37:50;2.80;;;1.47;;
4365;SDS011;2196;47.422;9.656;2024-01-15T09:40:17;4.03;;;1.73;;
4365;SDS011;2196;47.422;9.656;2024-01-15T09:42:44;1.80;;;1.40;;
4365;SDS011;2196;47.422;9.656;2024-01-15T09:45:13;1.67;;;1.30;;
4365;SDS011;2196;47.422;9.656;2024-01-15T09:47:40;2.17;;;1.60;;
4365;SDS011;2196;47.422;9.656;2024-01-15T09:50:10;2.97;;;2.07;;
4365;SDS011;2196;47.422;9.656;2024-01-15T09:52:37;4.30;;;2.22;;
4365;SDS011;2196;47.422;9.656;2024-01-15T09:55:05;4.40;;;2.33;;
4365;SDS011;2196;47.422;9.656;2024-01-15T09:57:33;2.88;;;1.90;;
4365;SDS011;2196;47.422;9.656;2024-01-15T10:00:01;1.97;;;1.80;;
4365;SDS011;2196;47.422;9.656;2024-01-15T10:02:30;2.63;;;1.43;;
4365;SDS011;2196;47.422;9.656;2024-01-15T10:04:57;2.80;;;1.63;;
4365;SDS011;2196;47.422;9.656;2024-01-15T10:07:26;4.00;;;1.10;;
4365;SDS011;2196;47.422;9.656;2024-01-15T10:09:54;2.87;;;1.50;;
4365;SDS011;2196;47.422;9.656;2024-01-15T10:12:21;1.47;;;1.00;;
4365;SDS011;2196;47.422;9.656;2024-01-15T10:14:50;4.60;;;1.30;;
4365;SDS011;2196;47.422;9.656;2024-01-15T10:17:17;5.07;;;1.87;;
4365;SDS011;2196;47.422;9.656;2024-01-15T10:19:44;3.53;;;2.13;;
4365;SDS011;2196;47.422;9.656;2024-01-15T10:22:13;6.47;;;2.87;;
4365;SDS011;2196;47.422;9.656;2024-01-15T10:24:42;2.77;;;1.20;;
4365;SDS011;2196;47.422;9.656;2024-01-15T10:27:10;1.97;;;1.73;;
4365;SDS011;2196;47.422;9.656;2024-01-15T10:29:38;2.13;;;1.30;;
4365;SDS011;2196;47.422;9.656;2024-01-15T10:32:09;1.80;;;1.43;;
4365;SDS011;2196;47.422;9.656;2024-01-15T10:34:39;2.73;;;1.50;;
4365;SDS011;2196;47.422;9.656;2024-01-15T10:37:09;2.13;;;1.37;;
4365;SDS011;2196;47.422;9.656;2024-01-15T10:39:37;2.90;;;1.87;;
4365;SDS011;2196;47.422;9.656;2024-01-15T10:42:09;3.83;;;1.83;;
4365;SDS011;2196;47.422;9.656;2024-01-15T10:44:37;3.37;;;1.50;;
4365;SDS011;2196;47.422;9.656;2024-01-15T10:47:08;1.27;;;0.80;;
4365;SDS011;2196;47.422;9.656;2024-01-15T10:49:35;1.47;;;1.00;;
4365;SDS011;2196;47.422;9.656;2024-01-15T10:52:02;3.37;;;0.97;;
4365;SDS011;2196;47.422;9.656;2024-01-15T10:54:29;1.77;;;1.50;;
4365;SDS011;2196;47.422;9.656;2024-01-15T10:56:57;1.73;;;1.00;;
4365;SDS011;2196;47.422;9.656;2024-01-15T10:59:25;1.93;;;1.17;;
4365;SDS011;2196;47.422;9.656;2024-01-15T11:01:54;5.50;;;1.47;;
4365;SDS011;2196;47.422;9.656;2024-01-15T11:04:22;4.40;;;1.03;;
4365;SDS011;2196;47.422;9.656;2024-01-15T11:06:52;1.30;;;1.13;;
4365;SDS011;2196;47.422;9.656;2024-01-15T11:09:19;2.17;;;1.20;;
4365;SDS011;2196;47.422;9.656;2024-01-15T11:11:47;1.33;;;1.10;;
4365;SDS011;2196;47.422;9.656;2024-01-15T11:14:39;1.70;;;1.37;;
4365;SDS011;2196;47.422;9.656;2024-01-15T11:17:08;1.07;;;1.07;;
4365;SDS011;2196;47.422;9.656;2024-01-15T11:19:36;2.97;;;1.40;;
4365;SDS011;2196;47.422;9.656;2024-01-15T11:22:06;2.40;;;0.77;;
4365;SDS011;2196;47.422;9.656;2024-01-15T11:24:37;7.40;;;1.03;;
4365;SDS011;2196;47.422;9.656;2024-01-15T11:27:04;3.23;;;1.10;;
4365;SDS011;2196;47.422;9.656;2024-01-15T11:29:32;3.23;;;1.07;;
4365;SDS011;2196;47.422;9.656;2024-01-15T11:32:06;2.63;;;1.53;;
4365;SDS011;2196;47.422;9.656;2024-01-15T11:37:18;2.87;;;1.40;;
4365;SDS011;2196;47.422;9.656;2024-01-15T11:39:46;9.63;;;1.17;;
4365;SDS011;2196;47.422;9.656;2024-01-15T11:42:13;2.37;;;1.53;;
4365;SDS011;2196;47.422;9.656;2024-01-15T11:44:41;4.10;;;1.67;;
4365;SDS011;2196;47.422;9.656;2024-01-15T11:47:10;4.83;;;1.57;;
4365;SDS011;2196;47.422;9.656;2024-01-15T11:52:33;3.37;;;1.40;;
4365;SDS011;2196;47.422;9.656;2024-01-15T11:55:01;3.67;;;2.00;;
4365;SDS011;2196;47.422;9.656;2024-01-15T11:57:40;6.87;;;2.13;;
4365;SDS011;2196;47.422;9.656;2024-01-15T12:00:10;2.30;;;1.37;;
4365;SDS011;2196;47.422;9.656;2024-01-15T12:02:39;1.80;;;1.60;;
4365;SDS011;2196;47.422;9.656;2024-01-15T12:05:07;2.10;;;1.70;;
4365;SDS011;2196;47.422;9.656;2024-01-15T12:07:35;1.63;;;1.53;;
4365;SDS011;2196;47.422;9.656;2024-01-15T12:10:02;2.00;;;1.50;;
4365;SDS011;2196;47.422;9.656;2024-01-15T12:12:33;1.70;;;1.60;;
4365;SDS011;2196;47.422;9.656;2024-01-15T12:15:04;3.57;;;1.70;;
4365;SDS011;2196;47.422;9.656;2024-01-15T12:17:31;2.10;;;1.90;;
4365;SDS011;2196;47.422;9.656;2024-01-15T12:20:00;2.17;;;1.17;;
4365;SDS011;2196;47.422;9.656;2024-01-15T12:22:28;4.60;;;1.70;;
4365;SDS011;2196;47.422;9.656;2024-01-15T12:24:55;1.53;;;1.27;;
4365;SDS011;2196;47.422;9.656;2024-01-15T12:27:22;4.70;;;2.07;;
4365;SDS011;2196;47.422;9.656;2024-01-15T12:29:50;1.90;;;1.50;;
4365;SDS011;2196;47.422;9.656;2024-01-15T12:32:18;2.50;;;1.70;;
4365;SDS011;2196;47.422;9.656;2024-01-15T12:34:45;4.13;;;2.37;;
4365;SDS011;2196;47.422;9.656;2024-01-15T12:37:17;4.60;;;2.20;;
4365;SDS011;2196;47.422;9.656;2024-01-15T12:39:44;3.13;;;2.03;;
4365;SDS011;2196;47.422;9.656;2024-01-15T12:42:11;5.50;;;2.13;;
4365;SDS011;2196;47.422;9.656;2024-01-15T12:44:40;3.17;;;1.57;;
4365;SDS011;2196;47.422;9.656;2024-01-15T12:47:07;5.10;;;1.87;;
4365;SDS011;2196;47.422;9.656;2024-01-15T12:49:35;4.20;;;2.13;;
4365;SDS011;2196;47.422;9.656;2024-01-15T12:52:07;4.17;;;1.93;;
4365;SDS011;2196;47.422;9.656;2024-01-15T12:54:39;3.47;;;1.90;;
4365;SDS011;2196;47.422;9.656;2024-01-15T12:57:06;2.90;;;2.10;;
4365;SDS011;2196;47.422;9.656;2024-01-15T12:59:33;3.97;;;2.50;;
4365;SDS011;2196;47.422;9.656;2024-01-15T13:02:00;4.07;;;2.90;;
4365;SDS011;2196;47.422;9.656;2024-01-15T13:04:28;4.57;;;3.50;;
4365;SDS011;2196;47.422;9.656;2024-01-15T13:06:55;3.13;;;2.83;;
4365;SDS011;2196;47.422;9.656;2024-01-15T13:09:22;5.20;;;3.47;;
4365;SDS011;2196;47.422;9.656;2024-01-15T13:11:51;4.53;;;3.40;;
4365;SDS011;2196;47.422;9.656;2024-01-15T13:14:18;5.73;;;3.23;;
4365;SDS011;2196;47.422;9.656;2024-01-15T13:16:45;5.33;;;2.93;;
4365;SDS011;2196;47.422;9.656;2024-01-15T13:19:13;6.50;;;3.20;;
4365;SDS011;2196;47.422;9.656;2024-01-15T13:21:40;8.10;;;4.93;;
4365;SDS011;2196;47.422;9.656;2024-01-15T13:24:08;4.03;;;3.37;;
4365;SDS011;2196;47.422;9.656;2024-01-15T13:26:36;4.07;;;3.67;;
4365;SDS011;2196;47.422;9.656;2024-01-15T13:29:05;3.20;;;2.63;;
4365;SDS011;2196;47.422;9.656;2024-01-15T13:31:32;6.40;;;2.97;;
4365;SDS011;2196;47.422;9.656;2024-01-15T13:34:00;4.07;;;3.40;;
4365;SDS011;2196;47.422;9.656;2024-01-15T13:36:28;4.33;;;2.63;;
4365;SDS011;2196;47.422;9.656;2024-01-15T13:38:55;4.77;;;3.37;;
4365;SDS011;2196;47.422;9.656;2024-01-15T13:41:22;3.63;;;3.20;;
4365;SDS011;2196;47.422;9.656;2024-01-15T13:43:52;2.53;;;1.97;;
4365;SDS011;2196;47.422;9.656;2024-01-15T13:46:23;3.23;;;2.70;;
4365;SDS011;2196;47.422;9.656;2024-01-15T13:48:51;3.50;;;3.27;;
4365;SDS011;2196;47.422;9.656;2024-01-15T13:51:18;2.83;;;2.40;;
4365;SDS011;2196;47.422;9.656;2024-01-15T13:53:47;5.37;;;2.83;;
4365;SDS011;2196;47.422;9.656;2024-01-15T13:56:14;5.13;;;2.93;;
4365;SDS011;2196;47.422;9.656;2024-01-15T13:58:42;3.00;;;2.70;;
4365;SDS011;2196;47.422;9.656;2024-01-15T14:01:09;4.47;;;2.73;;
4365;SDS011;2196;47.422;9.656;2024-01-15T14:03:37;2.87;;;2.17;;
4365;SDS011;2196;47.422;9.656;2024-01-15T14:06:05;3.17;;;2.23;;
4365;SDS011;2196;47.422;9.656;2024-01-15T14:08:34;1.97;;;1.77;;
4365;SDS011;2196;47.422;9.656;2024-01-15T14:11:02;3.43;;;2.27;;
4365;SDS011;2196;47.422;9.656;2024-01-15T14:13:31;2.57;;;1.40;;
4365;SDS011;2196;47.422;9.656;2024-01-15T14:15:58;2.70;;;2.37;;
4365;SDS011;2196;47.422;9.656;2024-01-15T14:18:26;3.47;;;2.23;;
4365;SDS011;2196;47.422;9.656;2024-01-15T14:20:54;3.03;;;2.70;;
4365;SDS011;2196;47.422;9.656;2024-01-15T14:23:21;3.83;;;2.77;;
4365;SDS011;2196;47.422;9.656;2024-01-15T14:25:49;2.07;;;1.93;;
4365;SDS011;2196;47.422;9.656;2024-01-15T14:28:16;4.80;;;2.90;;
4365;SDS011;2196;47.422;9.656;2024-01-15T14:30:43;4.03;;;2.50;;
4365;SDS011;2196;47.422;9.656;2024-01-15T14:33:10;2.63;;;1.97;;
4365;SDS011;2196;47.422;9.656;2024-01-15T14:35:37;1.67;;;1.57;;
4365;SDS011;2196;47.422;9.656;2024-01-15T14:38:05;2.70;;;2.50;;
4365;SDS011;2196;47.422;9.656;2024-01-15T14:40:32;2.40;;;2.17;;
4365;SDS011;2196;47.422;9.656;2024-01-15T14:43:00;3.20;;;1.87;;
4365;SDS011;2196;47.422;9.656;2024-01-15T14:45:27;1.53;;;1.43;;
4365;SDS011;2196;47.422;9.656;2024-01-15T14:47:55;2.37;;;2.17;;
4365;SDS011;2196;47.422;9.656;2024-01-15T14:50:23;3.57;;;2.97;;
4365;SDS011;2196;47.422;9.656;2024-01-15T14:52:50;3.73;;;3.17;;
4365;SDS011;2196;47.422;9.656;2024-01-15T14:55:19;4.77;;;3.07;;
4365;SDS011;2196;47.422;9.656;2024-01-15T14:57:48;4.77;;;4.03;;
4365;SDS011;2196;47.422;9.656;2024-01-15T15:00:15;6.27;;;2.87;;
4365;SDS011;2196;47.422;9.656;2024-01-15T15:02:43;4.60;;;1.97;;
4365;SDS011;2196;47.422;9.656;2024-01-15T15:05:10;3.80;;;2.43;;
4365;SDS011;2196;47.422;9.656;2024-01-15T15:07:38;6.10;;;4.17;;
4365;SDS011;2196;47.422;9.656;2024-01-15T15:10:06;4.73;;;3.33;;
4365;SDS011;2196;47.422;9.656;2024-01-15T15:12:35;3.87;;;2.50;;
4365;SDS011;2196;47.422;9.656;2024-01-15T15:15:03;3.30;;;1.83;;
4365;SDS011;2196;47.422;9.656;2024-01-15T15:17:30;3.13;;;1.63;;